sensor_id;sensor_type;location;lat;lon;timestamp;temperature;humidity
42913;DHT22;50720;54.324;18.558;2023-04-24T00:01:31;12.30;99.90
42913;DHT22;50720;54.324;18.558;2023-04-24T00:04:01;12.30;99.90
42913;DHT22;50720;54.324;18.558;2023-04-24T00:06:32;12.40;99.90
42913;DHT22;50720;54.324;18.558;2023-04-24T00:09:02;12.20;99.90
42913;DHT22;50720;54.324;18.558;2023-04-24T00:11:34;12.20;99.90
42913;DHT22;50720;54.324;18.558;2023-04-24T00:14:03;12.20;99.90
42913;DHT22;50720;54.324;18.558;2023-04-24T00:16:33;12.20;99.90
42913;DHT22;50720;54.324;18.558;2023-04-24T00:19:04;12.20;99.90
42913;DHT22;50720;54.324;18.558;2023-04-24T00:21:34;12.20;99.90
42913;DHT22;50720;54.324;18.558;2023-04-24T00:24:04;12.20;99.90
42913;DHT22;50720;54.324;18.558;2023-04-24T00:26:35;12.20;99.90
42913;DHT22;50720;54.324;18.558;2023-04-24T00:29:05;12.30;99.90
42913;DHT22;50720;54.324;18.558;2023-04-24T00:31:34;12.30;99.90
42913;DHT22;50720;54.324;18.558;2023-04-24T00:34:04;12.30;99.90
42913;DHT22;50720;54.324;18.558;2023-04-24T00:36:34;12.20;99.90
42913;DHT22;50720;54.324;18.558;2023-04-24T00:39:04;12.30;99.90
42913;DHT22;50720;54.324;18.558;2023-04-24T00:41:34;12.30;99.90
42913;DHT22;50720;54.324;18.558;2023-04-24T00:44:05;12.30;99.90
42913;DHT22;50720;54.324;18.558;2023-04-24T00:46:36;12.20;99.90
42913;DHT22;50720;54.324;18.558;2023-04-24T00:49:05;12.20;99.90
42913;DHT22;50720;54.324;18.558;2023-04-24T00:51:34;12.20;99.90
42913;DHT22;50720;54.324;18.558;2023-04-24T00:54:04;12.20;99.90
42913;DHT22;50720;54.324;18.558;2023-04-24T00:56:35;12.20;99.90
42913;DHT22;50720;54.324;18.558;2023-04-24T00:59:05;12.20;99.90
42913;DHT22;50720;54.324;18.558;2023-04-24T01:01:35;12.20;99.90
42913;DHT22;50720;54.324;18.558;2023-04-24T01:04:06;12.20;99.90
42913;DHT22;50720;54.324;18.558;2023-04-24T01:06:38;12.10;99.90
42913;DHT22;50720;54.324;18.558;2023-04-24T01:09:09;12.10;99.90
42913;DHT22;50720;54.324;18.558;2023-04-24T01:11:41;12.00;99.90
42913;DHT22;50720;54.324;18.558;2023-04-24T01:14:12;12.00;99.90
42913;DHT22;50720;54.324;18.558;2023-04-24T01:16:42;12.00;99.90
42913;DHT22;50720;54.324;18.558;2023-04-24T01:19:12;11.90;99.90
42913;DHT22;50720;54.324;18.558;2023-04-24T01:21:43;11.90;99.90
42913;DHT22;50720;54.324;18.558;2023-04-24T01:24:15;11.80;99.90
42913;DHT22;50720;54.324;18.558;2023-04-24T01:26:46;11.70;99.90
42913;DHT22;50720;54.324;18.558;2023-04-24T01:29:16;11.60;99.90
42913;DHT22;50720;54.324;18.558;2023-04-24T01:31:46;11.60;99.90
42913;DHT22;50720;54.324;18.558;2023-04-24T01:34:16;11.60;99.90
42913;DHT22;50720;54.324;18.558;2023-04-24T01:36:46;11.60;99.90
42913;DHT22;50720;54.324;18.558;2023-04-24T01:39:17;11.60;99.90
42913;DHT22;50720;54.324;18.558;2023-04-24T01:41:48;11.70;99.90
42913;DHT22;50720;54.324;18.558;2023-04-24T01:44:18;11.60;99.90
42913;DHT22;50720;54.324;18.558;2023-04-24T01:46:48;11.70;99.90
42913;DHT22;50720;54.324;18.558;2023-04-24T01:49:17;11.60;99.90
42913;DHT22;50720;54.324;18.558;2023-04-24T01:51:47;11.60;99.90
42913;DHT22;50720;54.324;18.558;2023-04-24T01:54:18;11.50;99.90
42913;DHT22;50720;54.324;18.558;2023-04-24T01:56:48;11.40;99.90
42913;DHT22;50720;54.324;18.558;2023-04-24T01:59:19;11.30;99.90
42913;DHT22;50720;54.324;18.558;2023-04-24T02:01:49;11.30;99.90
42913;DHT22;50720;54.324;18.558;2023-04-24T02:04:19;11.30;99.90
42913;DHT22;50720;54.324;18.558;2023-04-24T02:06:49;11.20;99.90
42913;DHT22;50720;54.324;18.558;2023-04-24T02:09:21;11.40;99.90
42913;DHT22;50720;54.324;18.558;2023-04-24T02:11:50;11.40;99.90
42913;DHT22;50720;54.324;18.558;2023-04-24T02:14:20;11.40;99.90
42913;DHT22;50720;54.324;18.558;2023-04-24T02:16:49;11.30;99.90
42913;DHT22;50720;54.324;18.558;2023-04-24T02:19:19;11.30;99.90
42913;DHT22;50720;54.324;18.558;2023-04-24T02:21:48;11.30;99.90
42913;DHT22;50720;54.324;18.558;2023-04-24T02:24:20;11.30;99.90
42913;DHT22;50720;54.324;18.558;2023-04-24T02:26:50;11.30;99.90
42913;DHT22;50720;54.324;18.558;2023-04-24T02:29:20;11.30;99.90
42913;DHT22;50720;54.324;18.558;2023-04-24T02:31:50;11.30;99.90
42913;DHT22;50720;54.324;18.558;2023-04-24T02:34:20;11.40;99.90
42913;DHT22;50720;54.324;18.558;2023-04-24T02:36:50;11.30;99.90
42913;DHT22;50720;54.324;18.558;2023-04-24T02:39:23;11.20;99.90
42913;DHT22;50720;54.324;18.558;2023-04-24T02:41:52;11.30;99.90
42913;DHT22;50720;54.324;18.558;2023-04-24T02:44:21;11.20;99.90
42913;DHT22;50720;54.324;18.558;2023-04-24T02:46:51;11.20;99.90
42913;DHT22;50720;54.324;18.558;2023-04-24T02:49:20;11.30;99.90
42913;DHT22;50720;54.324;18.558;2023-04-24T02:51:50;11.20;99.90
42913;DHT22;50720;54.324;18.558;2023-04-24T02:54:20;11.20;99.90
42913;DHT22;50720;54.324;18.558;2023-04-24T02:56:51;11.20;99.90
42913;DHT22;50720;54.324;18.558;2023-04-24T02:59:21;11.10;99.90
42913;DHT22;50720;54.324;18.558;2023-04-24T03:01:50;11.20;99.90
42913;DHT22;50720;54.324;18.558;2023-04-24T03:04:20;11.10;99.90
42913;DHT22;50720;54.324;18.558;2023-04-24T03:06:50;11.10;99.90
42913;DHT22;50720;54.324;18.558;2023-04-24T03:09:20;11.10;99.90
42913;DHT22;50720;54.324;18.558;2023-04-24T03:11:51;11.00;99.90
42913;DHT22;50720;54.324;18.558;2023-04-24T03:14:21;10.90;99.90
42913;DHT22;50720;54.324;18.558;2023-04-24T03:16:50;10.90;99.90
42913;DHT22;50720;54.324;18.558;2023-04-24T03:19:20;11.00;99.90
42913;DHT22;50720;54.324;18.558;2023-04-24T03:21:50;11.00;99.90
42913;DHT22;50720;54.324;18.558;2023-04-24T03:24:20;11.00;99.90
42913;DHT22;50720;54.324;18.558;2023-04-24T03:26:51;11.00;99.90
42913;DHT22;50720;54.324;18.558;2023-04-24T03:29:21;10.90;99.90
42913;DHT22;50720;54.324;18.558;2023-04-24T03:31:50;10.90;99.90
42913;DHT22;50720;54.324;18.558;2023-04-24T03:34:20;10.90;99.90
42913;DHT22;50720;54.324;18.558;2023-04-24T03:36:50;10.80;99.90
42913;DHT22;50720;54.324;18.558;2023-04-24T03:39:20;10.90;99.90
42913;DHT22;50720;54.324;18.558;2023-04-24T03:41:52;10.90;99.90
42913;DHT22;50720;54.324;18.558;2023-04-24T03:44:21;10.90;99.90
42913;DHT22;50720;54.324;18.558;2023-04-24T03:46:50;10.90;99.90
42913;DHT22;50720;54.324;18.558;2023-04-24T03:49:20;10.90;99.90
42913;DHT22;50720;54.324;18.558;2023-04-24T03:51:50;10.90;99.90
42913;DHT22;50720;54.324;18.558;2023-04-24T03:54:20;10.90;99.90
42913;DHT22;50720;54.324;18.558;2023-04-24T03:56:51;10.90;99.90
42913;DHT22;50720;54.324;18.558;2023-04-24T03:59:21;10.90;99.90
42913;DHT22;50720;54.324;18.558;2023-04-24T04:01:50;10.90;99.90
42913;DHT22;50720;54.324;18.558;2023-04-24T04:04:20;10.90;99.90
42913;DHT22;50720;54.324;18.558;2023-04-24T04:06:50;10.80;99.90
42913;DHT22;50720;54.324;18.558;2023-04-24T04:09:21;10.80;99.90
42913;DHT22;50720;54.324;18.558;2023-04-24T04:11:52;10.80;99.90
42913;DHT22;50720;54.324;18.558;2023-04-24T04:14:22;10.60;99.90
42913;DHT22;50720;54.324;18.558;2023-04-24T04:16:51;10.60;99.90
42913;DHT22;50720;54.324;18.558;2023-04-24T04:19:22;10.60;99.90
42913;DHT22;50720;54.324;18.558;2023-04-24T04:21:51;10.50;99.90
42913;DHT22;50720;54.324;18.558;2023-04-24T04:24:24;10.50;99.90
42913;DHT22;50720;54.324;18.558;2023-04-24T04:26:55;10.50;99.90
42913;DHT22;50720;54.324;18.558;2023-04-24T04:29:26;10.40;99.90
42913;DHT22;50720;54.324;18.558;2023-04-24T04:31:55;10.30;99.90
42913;DHT22;50720;54.324;18.558;2023-04-24T04:34:26;10.40;99.90
42913;DHT22;50720;54.324;18.558;2023-04-24T04:36:55;10.40;99.90
42913;DHT22;50720;54.324;18.558;2023-04-24T04:39:27;10.40;99.90
42913;DHT22;50720;54.324;18.558;2023-04-24T04:41:59;10.40;99.90
42913;DHT22;50720;54.324;18.558;2023-04-24T04:44:29;10.40;99.90
42913;DHT22;50720;54.324;18.558;2023-04-24T04:46:59;10.50;99.90
42913;DHT22;50720;54.324;18.558;2023-04-24T04:49:28;10.50;99.90
42913;DHT22;50720;54.324;18.558;2023-04-24T04:51:58;10.60;99.90
42913;DHT22;50720;54.324;18.558;2023-04-24T04:54:28;10.60;99.90
42913;DHT22;50720;54.324;18.558;2023-04-24T04:56:59;10.70;99.90
42913;DHT22;50720;54.324;18.558;2023-04-24T04:59:31;10.70;99.90
42913;DHT22;50720;54.324;18.558;2023-04-24T05:02:00;10.80;99.90
42913;DHT22;50720;54.324;18.558;2023-04-24T05:04:30;10.80;99.90
42913;DHT22;50720;54.324;18.558;2023-04-24T05:07:00;10.90;99.90
42913;DHT22;50720;54.324;18.558;2023-04-24T05:09:30;10.90;99.90
42913;DHT22;50720;54.324;18.558;2023-04-24T05:12:02;11.10;99.90
42913;DHT22;50720;54.324;18.558;2023-04-24T05:14:32;11.10;99.90
42913;DHT22;50720;54.324;18.558;2023-04-24T05:17:02;11.10;99.90
42913;DHT22;50720;54.324;18.558;2023-04-24T05:19:32;11.00;99.90
42913;DHT22;50720;54.324;18.558;2023-04-24T05:22:03;10.90;99.90
42913;DHT22;50720;54.324;18.558;2023-04-24T05:24:34;11.00;99.90
42913;DHT22;50720;54.324;18.558;2023-04-24T05:27:06;11.00;99.90
42913;DHT22;50720;54.324;18.558;2023-04-24T05:29:36;11.10;99.90
42913;DHT22;50720;54.324;18.558;2023-04-24T05:32:05;11.10;99.90
42913;DHT22;50720;54.324;18.558;2023-04-24T05:34:35;11.10;99.90
42913;DHT22;50720;54.324;18.558;2023-04-24T05:37:05;11.00;99.90
42913;DHT22;50720;54.324;18.558;2023-04-24T05:39:38;10.90;99.90
42913;DHT22;50720;54.324;18.558;2023-04-24T05:42:11;10.90;99.90
42913;DHT22;50720;54.324;18.558;2023-04-24T05:44:41;11.00;99.90
42913;DHT22;50720;54.324;18.558;2023-04-24T05:47:10;11.00;99.90
42913;DHT22;50720;54.324;18.558;2023-04-24T05:49:40;11.20;99.90
42913;DHT22;50720;54.324;18.558;2023-04-24T05:52:10;11.20;99.90
42913;DHT22;50720;54.324;18.558;2023-04-24T05:54:40;11.20;99.90
42913;DHT22;50720;54.324;18.558;2023-04-24T05:57:11;11.30;99.90
42913;DHT22;50720;54.324;18.558;2023-04-24T05:59:41;11.30;99.90
42913;DHT22;50720;54.324;18.558;2023-04-24T06:02:11;11.30;99.90
42913;DHT22;50720;54.324;18.558;2023-04-24T06:04:41;11.30;99.90
42913;DHT22;50720;54.324;18.558;2023-04-24T06:07:11;11.30;99.90
42913;DHT22;50720;54.324;18.558;2023-04-24T06:09:41;11.40;99.90
42913;DHT22;50720;54.324;18.558;2023-04-24T06:12:13;11.60;99.90
42913;DHT22;50720;54.324;18.558;2023-04-24T06:14:42;11.70;99.90
42913;DHT22;50720;54.324;18.558;2023-04-24T06:17:12;12.00;99.90
42913;DHT22;50720;54.324;18.558;2023-04-24T06:19:41;12.00;99.90
42913;DHT22;50720;54.324;18.558;2023-04-24T06:22:11;11.90;99.90
42913;DHT22;50720;54.324;18.558;2023-04-24T06:24:41;12.00;99.90
42913;DHT22;50720;54.324;18.558;2023-04-24T06:27:12;12.00;99.90
42913;DHT22;50720;54.324;18.558;2023-04-24T06:29:42;12.00;99.90
42913;DHT22;50720;54.324;18.558;2023-04-24T06:32:12;11.90;99.90
42913;DHT22;50720;54.324;18.558;2023-04-24T06:34:42;11.80;99.90
42913;DHT22;50720;54.324;18.558;2023-04-24T06:37:11;11.80;99.90
42913;DHT22;50720;54.324;18.558;2023-04-24T06:39:41;11.70;99.90
42913;DHT22;50720;54.324;18.558;2023-04-24T06:42:12;11.70;99.90
42913;DHT22;50720;54.324;18.558;2023-04-24T06:44:42;11.70;99.90
42913;DHT22;50720;54.324;18.558;2023-04-24T06:47:12;11.60;99.90
42913;DHT22;50720;54.324;18.558;2023-04-24T06:49:42;11.70;99.90
42913;DHT22;50720;54.324;18.558;2023-04-24T06:52:12;11.70;99.90
42913;DHT22;50720;54.324;18.558;2023-04-24T06:54:42;11.70;99.90
42913;DHT22;50720;54.324;18.558;2023-04-24T06:57:13;11.70;99.90
42913;DHT22;50720;54.324;18.558;2023-04-24T06:59:44;11.60;99.90
42913;DHT22;50720;54.324;18.558;2023-04-24T07:02:14;11.50;99.90
42913;DHT22;50720;54.324;18.558;2023-04-24T07:04:44;11.20;99.90
42913;DHT22;50720;54.324;18.558;2023-04-24T07:07:15;11.00;99.90
42913;DHT22;50720;54.324;18.558;2023-04-24T07:09:45;10.90;99.90
42913;DHT22;50720;54.324;18.558;2023-04-24T07:12:16;10.90;99.90
42913;DHT22;50720;54.324;18.558;2023-04-24T07:14:50;10.90;99.90
42913;DHT22;50720;54.324;18.558;2023-04-24T07:17:19;10.90;99.90
42913;DHT22;50720;54.324;18.558;2023-04-24T07:19:49;11.00;99.90
42913;DHT22;50720;54.324;18.558;2023-04-24T07:22:19;11.10;99.90
42913;DHT22;50720;54.324;18.558;2023-04-24T07:24:49;11.00;99.90
42913;DHT22;50720;54.324;18.558;2023-04-24T07:27:20;11.10;99.90
42913;DHT22;50720;54.324;18.558;2023-04-24T07:29:50;11.00;99.90
42913;DHT22;50720;54.324;18.558;2023-04-24T07:32:19;11.00;99.90
42913;DHT22;50720;54.324;18.558;2023-04-24T07:34:48;11.00;99.90
42913;DHT22;50720;54.324;18.558;2023-04-24T07:37:18;11.00;99.90
42913;DHT22;50720;54.324;18.558;2023-04-24T07:39:48;11.00;99.90
42913;DHT22;50720;54.324;18.558;2023-04-24T07:42:19;11.10;99.90
42913;DHT22;50720;54.324;18.558;2023-04-24T07:44:49;11.20;99.90
42913;DHT22;50720;54.324;18.558;2023-04-24T07:47:18;11.10;99.90
42913;DHT22;50720;54.324;18.558;2023-04-24T07:49:49;11.20;99.90
42913;DHT22;50720;54.324;18.558;2023-04-24T07:52:19;11.20;99.90
42913;DHT22;50720;54.324;18.558;2023-04-24T07:54:49;11.20;99.90
42913;DHT22;50720;54.324;18.558;2023-04-24T07:57:21;11.10;99.90
42913;DHT22;50720;54.324;18.558;2023-04-24T07:59:51;11.30;99.90
42913;DHT22;50720;54.324;18.558;2023-04-24T08:02:21;11.40;99.90
42913;DHT22;50720;54.324;18.558;2023-04-24T08:04:55;11.60;99.90
42913;DHT22;50720;54.324;18.558;2023-04-24T08:07:26;11.60;99.90
42913;DHT22;50720;54.324;18.558;2023-04-24T08:09:57;11.60;99.90
42913;DHT22;50720;54.324;18.558;2023-04-24T08:12:29;11.70;99.90
42913;DHT22;50720;54.324;18.558;2023-04-24T08:14:59;11.60;99.90
42913;DHT22;50720;54.324;18.558;2023-04-24T08:17:29;11.80;99.90
42913;DHT22;50720;54.324;18.558;2023-04-24T08:20:02;11.90;99.90
42913;DHT22;50720;54.324;18.558;2023-04-24T08:22:32;11.90;99.90
42913;DHT22;50720;54.324;18.558;2023-04-24T08:25:02;12.00;99.90
42913;DHT22;50720;54.324;18.558;2023-04-24T08:27:33;12.20;99.90
42913;DHT22;50720;54.324;18.558;2023-04-24T08:30:05;12.20;99.90
42913;DHT22;50720;54.324;18.558;2023-04-24T08:32:36;12.30;99.90
42913;DHT22;50720;54.324;18.558;2023-04-24T08:35:06;12.60;99.90
42913;DHT22;50720;54.324;18.558;2023-04-24T08:37:37;12.90;99.90
42913;DHT22;50720;54.324;18.558;2023-04-24T08:40:13;13.00;99.90
42913;DHT22;50720;54.324;18.558;2023-04-24T08:42:44;13.10;99.90
42913;DHT22;50720;54.324;18.558;2023-04-24T08:45:14;13.20;99.90
42913;DHT22;50720;54.324;18.558;2023-04-24T08:47:44;13.30;99.90
42913;DHT22;50720;54.324;18.558;2023-04-24T08:50:14;13.60;99.90
42913;DHT22;50720;54.324;18.558;2023-04-24T08:52:45;13.80;99.90
42913;DHT22;50720;54.324;18.558;2023-04-24T08:55:16;14.00;99.90
42913;DHT22;50720;54.324;18.558;2023-04-24T08:57:50;14.00;99.90
42913;DHT22;50720;54.324;18.558;2023-04-24T09:00:21;14.10;99.90
42913;DHT22;50720;54.324;18.558;2023-04-24T09:02:52;14.20;99.90
42913;DHT22;50720;54.324;18.558;2023-04-24T09:05:22;14.10;99.90
42913;DHT22;50720;54.324;18.558;2023-04-24T09:07:56;14.20;99.90
42913;DHT22;50720;54.324;18.558;2023-04-24T09:10:26;14.20;99.90
42913;DHT22;50720;54.324;18.558;2023-04-24T09:12:59;14.30;99.90
42913;DHT22;50720;54.324;18.558;2023-04-24T09:15:31;14.20;99.90
42913;DHT22;50720;54.324;18.558;2023-04-24T09:18:01;14.40;99.90
42913;DHT22;50720;54.324;18.558;2023-04-24T09:20:31;14.60;99.90
42913;DHT22;50720;54.324;18.558;2023-04-24T09:23:01;14.70;99.90
42913;DHT22;50720;54.324;18.558;2023-04-24T09:25:32;14.70;99.90
42913;DHT22;50720;54.324;18.558;2023-04-24T09:28:04;14.60;99.90
42913;DHT22;50720;54.324;18.558;2023-04-24T09:30:34;14.60;99.90
42913;DHT22;50720;54.324;18.558;2023-04-24T09:33:10;14.50;99.90
42913;DHT22;50720;54.324;18.558;2023-04-24T09:35:41;14.60;99.90
42913;DHT22;50720;54.324;18.558;2023-04-24T09:38:11;14.60;99.90
42913;DHT22;50720;54.324;18.558;2023-04-24T09:40:41;15.00;99.90
42913;DHT22;50720;54.324;18.558;2023-04-24T09:43:12;15.10;99.90
42913;DHT22;50720;54.324;18.558;2023-04-24T09:45:43;15.20;99.90
42913;DHT22;50720;54.324;18.558;2023-04-24T09:48:12;15.30;99.90
42913;DHT22;50720;54.324;18.558;2023-04-24T09:50:46;15.40;99.90
42913;DHT22;50720;54.324;18.558;2023-04-24T09:53:15;15.60;99.90
42913;DHT22;50720;54.324;18.558;2023-04-24T09:55:45;15.50;99.90
42913;DHT22;50720;54.324;18.558;2023-04-24T09:58:18;15.30;99.90
42913;DHT22;50720;54.324;18.558;2023-04-24T10:00:54;15.30;99.90
42913;DHT22;50720;54.324;18.558;2023-04-24T10:03:24;15.20;99.90
42913;DHT22;50720;54.324;18.558;2023-04-24T10:05:58;15.30;99.90
42913;DHT22;50720;54.324;18.558;2023-04-24T10:08:33;15.30;99.90
42913;DHT22;50720;54.324;18.558;2023-04-24T10:11:04;15.30;99.90
42913;DHT22;50720;54.324;18.558;2023-04-24T10:13:35;15.30;99.90
42913;DHT22;50720;54.324;18.558;2023-04-24T10:16:05;15.40;99.90
42913;DHT22;50720;54.324;18.558;2023-04-24T10:18:35;15.70;99.90
42913;DHT22;50720;54.324;18.558;2023-04-24T10:21:05;16.10;99.90
42913;DHT22;50720;54.324;18.558;2023-04-24T10:23:35;16.10;99.90
42913;DHT22;50720;54.324;18.558;2023-04-24T10:26:06;16.20;99.90
42913;DHT22;50720;54.324;18.558;2023-04-24T10:28:38;16.30;99.90
42913;DHT22;50720;54.324;18.558;2023-04-24T10:31:09;16.50;99.90
42913;DHT22;50720;54.324;18.558;2023-04-24T10:33:40;16.90;99.90
42913;DHT22;50720;54.324;18.558;2023-04-24T10:36:12;17.10;99.90
42913;DHT22;50720;54.324;18.558;2023-04-24T10:38:44;17.30;99.90
42913;DHT22;50720;54.324;18.558;2023-04-24T10:41:18;17.30;99.90
42913;DHT22;50720;54.324;18.558;2023-04-24T10:44:05;17.50;99.90
42913;DHT22;50720;54.324;18.558;2023-04-24T10:46:36;17.70;99.90
42913;DHT22;50720;54.324;18.558;2023-04-24T10:49:06;17.90;99.90
42913;DHT22;50720;54.324;18.558;2023-04-24T10:51:49;18.00;99.90
42913;DHT22;50720;54.324;18.558;2023-04-24T10:54:25;18.60;99.90
42913;DHT22;50720;54.324;18.558;2023-04-24T10:57:25;19.00;99.90
42913;DHT22;50720;54.324;18.558;2023-04-24T11:00:20;18.80;99.90
42913;DHT22;50720;54.324;18.558;2023-04-24T11:02:53;18.90;99.90
42913;DHT22;50720;54.324;18.558;2023-04-24T11:05:35;18.80;99.90
42913;DHT22;50720;54.324;18.558;2023-04-24T11:08:15;18.90;99.90
42913;DHT22;50720;54.324;18.558;2023-04-24T11:10:46;18.70;99.90
42913;DHT22;50720;54.324;18.558;2023-04-24T11:13:16;18.30;99.90
42913;DHT22;50720;54.324;18.558;2023-04-24T11:16:13;18.30;99.90
42913;DHT22;50720;54.324;18.558;2023-04-24T11:18:43;18.30;99.90
42913;DHT22;50720;54.324;18.558;2023-04-24T11:21:18;18.50;99.90
42913;DHT22;50720;54.324;18.558;2023-04-24T11:23:50;18.90;99.90
42913;DHT22;50720;54.324;18.558;2023-04-24T11:26:22;19.10;99.90
42913;DHT22;50720;54.324;18.558;2023-04-24T11:28:54;19.20;99.90
42913;DHT22;50720;54.324;18.558;2023-04-24T11:31:35;19.20;99.90
42913;DHT22;50720;54.324;18.558;2023-04-24T11:34:10;19.00;99.90
42913;DHT22;50720;54.324;18.558;2023-04-24T11:36:42;19.00;99.90
42913;DHT22;50720;54.324;18.558;2023-04-24T11:39:15;19.00;99.90
42913;DHT22;50720;54.324;18.558;2023-04-24T11:41:44;19.30;99.90
42913;DHT22;50720;54.324;18.558;2023-04-24T11:44:14;19.80;99.90
42913;DHT22;50720;54.324;18.558;2023-04-24T11:46:44;20.20;99.90
42913;DHT22;50720;54.324;18.558;2023-04-24T11:49:14;20.50;99.90
42913;DHT22;50720;54.324;18.558;2023-04-24T11:51:44;20.80;99.90
42913;DHT22;50720;54.324;18.558;2023-04-24T11:54:22;20.90;99.90
42913;DHT22;50720;54.324;18.558;2023-04-24T11:56:52;20.50;99.90
42913;DHT22;50720;54.324;18.558;2023-04-24T11:59:22;20.50;99.90
42913;DHT22;50720;54.324;18.558;2023-04-24T12:01:51;20.50;99.90
42913;DHT22;50720;54.324;18.558;2023-04-24T12:04:21;20.40;99.90
42913;DHT22;50720;54.324;18.558;2023-04-24T12:07:01;20.50;99.90
42913;DHT22;50720;54.324;18.558;2023-04-24T12:09:42;20.40;99.90
42913;DHT22;50720;54.324;18.558;2023-04-24T12:12:15;20.40;99.90
42913;DHT22;50720;54.324;18.558;2023-04-24T12:14:48;20.40;99.90
42913;DHT22;50720;54.324;18.558;2023-04-24T12:17:23;20.20;99.90
42913;DHT22;50720;54.324;18.558;2023-04-24T12:19:58;19.80;99.90
42913;DHT22;50720;54.324;18.558;2023-04-24T12:22:42;19.50;99.90
42913;DHT22;50720;54.324;18.558;2023-04-24T12:25:15;19.50;99.90
42913;DHT22;50720;54.324;18.558;2023-04-24T12:27:45;19.50;99.90
42913;DHT22;50720;54.324;18.558;2023-04-24T12:30:16;19.40;99.90
42913;DHT22;50720;54.324;18.558;2023-04-24T12:32:48;19.30;99.90
42913;DHT22;50720;54.324;18.558;2023-04-24T12:35:20;19.40;99.90
42913;DHT22;50720;54.324;18.558;2023-04-24T12:37:49;19.60;99.90
42913;DHT22;50720;54.324;18.558;2023-04-24T12:40:22;19.40;99.90
42913;DHT22;50720;54.324;18.558;2023-04-24T12:42:54;19.60;99.90
42913;DHT22;50720;54.324;18.558;2023-04-24T12:45:24;19.40;99.90
42913;DHT22;50720;54.324;18.558;2023-04-24T12:47:55;19.30;99.90
42913;DHT22;50720;54.324;18.558;2023-04-24T12:50:25;19.30;99.90
42913;DHT22;50720;54.324;18.558;2023-04-24T12:52:54;19.40;99.90
42913;DHT22;50720;54.324;18.558;2023-04-24T12:55:26;19.40;99.90
42913;DHT22;50720;54.324;18.558;2023-04-24T12:57:55;19.30;99.90
42913;DHT22;50720;54.324;18.558;2023-04-24T13:00:25;19.00;99.90
42913;DHT22;50720;54.324;18.558;2023-04-24T13:02:55;18.90;99.90
42913;DHT22;50720;54.324;18.558;2023-04-24T13:05:25;18.80;99.90
42913;DHT22;50720;54.324;18.558;2023-04-24T13:07:54;18.60;99.90
42913;DHT22;50720;54.324;18.558;2023-04-24T13:10:26;18.70;99.90
42913;DHT22;50720;54.324;18.558;2023-04-24T13:12:56;18.80;99.90
42913;DHT22;50720;54.324;18.558;2023-04-24T13:15:26;19.00;99.90
42913;DHT22;50720;54.324;18.558;2023-04-24T13:17:55;19.20;99.90
42913;DHT22;50720;54.324;18.558;2023-04-24T13:20:25;19.50;99.90
42913;DHT22;50720;54.324;18.558;2023-04-24T13:22:55;19.60;99.90
42913;DHT22;50720;54.324;18.558;2023-04-24T13:25:26;19.60;99.90
42913;DHT22;50720;54.324;18.558;2023-04-24T13:27:57;19.70;99.90
42913;DHT22;50720;54.324;18.558;2023-04-24T13:30:27;20.70;99.90
42913;DHT22;50720;54.324;18.558;2023-04-24T13:32:56;21.30;99.90
42913;DHT22;50720;54.324;18.558;2023-04-24T13:35:26;21.90;99.90
42913;DHT22;50720;54.324;18.558;2023-04-24T13:37:56;22.10;99.90
42913;DHT22;50720;54.324;18.558;2023-04-24T13:40:28;22.20;99.90
42913;DHT22;50720;54.324;18.558;2023-04-24T13:42:57;22.30;99.20
42913;DHT22;50720;54.324;18.558;2023-04-24T13:45:27;22.00;99.90
42913;DHT22;50720;54.324;18.558;2023-04-24T13:47:57;22.30;99.90
42913;DHT22;50720;54.324;18.558;2023-04-24T13:50:28;22.50;99.50
42913;DHT22;50720;54.324;18.558;2023-04-24T13:52:57;23.20;97.40
42913;DHT22;50720;54.324;18.558;2023-04-24T13:55:31;22.80;97.40
42913;DHT22;50720;54.324;18.558;2023-04-24T13:58:00;22.60;97.80
42913;DHT22;50720;54.324;18.558;2023-04-24T14:00:30;22.30;98.00
42913;DHT22;50720;54.324;18.558;2023-04-24T14:03:00;21.80;99.30
42913;DHT22;50720;54.324;18.558;2023-04-24T14:05:30;22.20;99.60
42913;DHT22;50720;54.324;18.558;2023-04-24T14:07:59;22.40;99.20
42913;DHT22;50720;54.324;18.558;2023-04-24T14:10:30;22.60;99.40
42913;DHT22;50720;54.324;18.558;2023-04-24T14:12:59;23.20;98.50
42913;DHT22;50720;54.324;18.558;2023-04-24T14:15:29;23.80;96.90
42913;DHT22;50720;54.324;18.558;2023-04-24T14:17:59;23.90;96.50
42913;DHT22;50720;54.324;18.558;2023-04-24T14:20:31;24.40;95.50
42913;DHT22;50720;54.324;18.558;2023-04-24T14:23:00;24.20;93.60
42913;DHT22;50720;54.324;18.558;2023-04-24T14:25:32;24.50;94.10
42913;DHT22;50720;54.324;18.558;2023-04-24T14:28:02;24.50;92.70
42913;DHT22;50720;54.324;18.558;2023-04-24T14:30:32;24.50;91.80
42913;DHT22;50720;54.324;18.558;2023-04-24T14:33:01;24.30;92.90
42913;DHT22;50720;54.324;18.558;2023-04-24T14:35:31;24.30;92.70
42913;DHT22;50720;54.324;18.558;2023-04-24T14:38:01;24.40;92.60
42913;DHT22;50720;54.324;18.558;2023-04-24T14:40:33;24.20;92.20
42913;DHT22;50720;54.324;18.558;2023-04-24T14:43:22;23.70;92.90
42913;DHT22;50720;54.324;18.558;2023-04-24T14:45:52;23.60;94.30
42913;DHT22;50720;54.324;18.558;2023-04-24T14:48:22;24.00;93.90
42913;DHT22;50720;54.324;18.558;2023-04-24T14:50:52;24.10;93.10
42913;DHT22;50720;54.324;18.558;2023-04-24T14:53:21;23.40;94.10
42913;DHT22;50720;54.324;18.558;2023-04-24T14:55:53;22.50;97.10
42913;DHT22;50720;54.324;18.558;2023-04-24T14:58:23;22.30;98.60
42913;DHT22;50720;54.324;18.558;2023-04-24T15:00:53;22.30;99.70
42913;DHT22;50720;54.324;18.558;2023-04-24T15:03:23;22.20;99.90
42913;DHT22;50720;54.324;18.558;2023-04-24T15:05:55;21.70;99.90
42913;DHT22;50720;54.324;18.558;2023-04-24T15:08:25;21.00;99.90
42913;DHT22;50720;54.324;18.558;2023-04-24T15:10:56;20.60;99.90
42913;DHT22;50720;54.324;18.558;2023-04-24T15:13:25;20.20;99.90
42913;DHT22;50720;54.324;18.558;2023-04-24T15:15:55;20.00;99.90
42913;DHT22;50720;54.324;18.558;2023-04-24T15:18:24;19.80;99.90
42913;DHT22;50720;54.324;18.558;2023-04-24T15:20:56;19.50;99.90
42913;DHT22;50720;54.324;18.558;2023-04-24T15:23:25;19.30;99.90
42913;DHT22;50720;54.324;18.558;2023-04-24T15:25:57;19.30;99.90
42913;DHT22;50720;54.324;18.558;2023-04-24T15:28:26;19.20;99.90
42913;DHT22;50720;54.324;18.558;2023-04-24T15:30:56;19.10;99.90
42913;DHT22;50720;54.324;18.558;2023-04-24T15:33:26;19.00;99.90
42913;DHT22;50720;54.324;18.558;2023-04-24T15:35:55;18.90;99.90
42913;DHT22;50720;54.324;18.558;2023-04-24T15:38:25;18.70;99.90